Aérodrome :
LOGIN :

S'inscrire | Disclaimer

   EN    FR    IT 

 










Légende :    VFR   VFR Marginal   IFR   IFR Intensif   IFR Très Intensif
Visi : 
Plafond : 
>= 8 km
>= 3000ft
5 à 8 km
1000 à 3000 ft
1500m à 5 km
500 à 1000 ft
800 à 1500m
200 à 500 ft
< 800m
< 200 ft
Symboles :   Orages  Brouillard  Fortes neiges  Fortes précipitations  Vent > 20 kt
SIGMETs :   Divers  Orages  Givrage  Turbulence  Onde Orograph.  Cendres Volcan.







- Altitude de l'aérodrome : 124 ft
- Code IATA : RNS
- Voir les cartes d'approche


LFRN - Rennes

DERNIER METAR :
  • 231630Z AUTO 22008KT 9999 OVC007 15/14 Q1022 TEMPO 3000 RADZ

METARs EXPIRÉS :
  • 231600Z AUTO 22009KT 9999 OVC008 15/14 Q1022 TEMPO 3000 RADZ
  • 231530Z AUTO 21007KT 9999 OVC007 15/14 Q1022 TEMPO 3000 RADZ
  • 231500Z AUTO 22009KT 9999 OVC008 15/14 Q1022 TEMPO 3000 RADZ
  • 231430Z AUTO 21009KT 9999 OVC008 15/14 Q1022 TEMPO 3000 RADZ
  • 231400Z AUTO 21008KT 8000 -DZ BKN009 OVC015 15/14 Q1023 TEMPO 3000 RADZ

TAF TAF LFRN
Valide du 23 à 12h jusqu'au 24 à 12h UTC


231100Z 2312/2412 22010KT 9999 BKN015
TEMPO 2312/2321 3000 RADZ BKN007
BECMG 2318/2321 BKN008
TEMPO 2321/2402 2000 DZ BKN003
TEMPO 2402/2406 BKN003
BECMG 2409/2411 BKN015
ATIS : +33 2 99 67 72 50
Pas de NOTAMs connus pour ce terrain.



MET'MAP, la Météo Aéronautique d'un coup d'oeil ! - Copyright ORBIFLY Décembre 2007 - Disclaimer

ORBIFLY MET'MAP TEAM :

Programmation & Développement : Alexandra Zaïnal
Conception & Développement : Baudouin d'Aumeries
Co-Programmation & Développement : Marc-Olivier Méhu
Soutien technique & logistique : Manuel Goepfert

Contact : metmap@orbifly.com




SOURCES & CREDITS :

   NOAA